Time;durP1;ratioP1;P1;durP2;ratioP2;P2;SDS_P1;SDS_P2;PMS_P1;PMS_P2;Temp;Humidity;BMP_temperature;BMP_pressure;BME280_temperature;BME280_humidity;BME280_pressure;Samples;Min_cycle;Max_cycle;Signal;HPM_P1;HPM_P2
2021/10/19 00:00:27;;;;;;;35.22;22.75;;;;;;;8.74;84.25;97464.66;5014903;28;20534;-75
2021/10/19 00:02:55;;;;;;;29.60;20.58;;;;;;;8.79;85.06;97458.06;5015302;28;20511;-75
2021/10/19 00:05:22;;;;;;;26.33;17.63;;;;;;;8.78;84.94;97466.00;5014958;28;20054;-75
2021/10/19 00:07:50;;;;;;;31.73;19.92;;;;;;;8.80;85.54;97461.47;5014941;28;20061;-76
2021/10/19 00:10:18;;;;;;;28.20;19.17;;;;;;;8.81;85.73;97455.28;5014622;28;20054;-75
2021/10/19 00:12:47;;;;;;;26.23;17.67;;;;;;;8.79;85.15;97447.63;5014286;28;20056;-75
2021/10/19 00:15:18;;;;;;;25.73;18.83;;;;;;;8.77;84.56;97443.56;5014957;28;20096;-75
2021/10/19 00:17:47;;;;;;;24.17;18.13;;;;;;;8.76;83.46;97434.09;5014969;28;20061;-76
2021/10/19 00:20:16;;;;;;;26.77;18.60;;;;;;;8.76;83.10;97434.09;5014309;28;20042;-76
2021/10/19 00:22:44;;;;;;;23.55;16.98;;;;;;;8.71;81.94;97428.53;5014710;28;20053;-75
2021/10/19 00:25:14;;;;;;;21.40;17.05;;;;;;;8.68;81.49;97428.81;5014844;28;20046;-75
2021/10/19 00:27:42;;;;;;;25.15;17.90;;;;;;;8.65;81.77;97425.56;5014677;28;20050;-76
2021/10/19 00:30:12;;;;;;;22.73;16.63;;;;;;;8.61;80.87;97429.41;5014192;28;20046;-75
2021/10/19 00:32:40;;;;;;;26.83;19.65;;;;;;;8.60;82.10;97417.38;5014436;28;20507;-75
2021/10/19 00:35:09;;;;;;;22.92;17.27;;;;;;;8.61;82.42;97420.81;5014458;28;20058;-75
2021/10/19 00:37:37;;;;;;;22.90;17.42;;;;;;;8.58;81.85;97423.72;5014780;28;20069;-75
2021/10/19 00:40:06;;;;;;;29.20;19.77;;;;;;;8.58;82.57;97427.13;5014195;28;20061;-75
2021/10/19 00:42:35;;;;;;;30.92;21.02;;;;;;;8.54;82.40;97423.19;5014413;28;20057;-76
2021/10/19 00:45:03;;;;;;;25.90;18.63;;;;;;;8.52;82.26;97419.91;5014267;28;20057;-75
2021/10/19 00:47:32;;;;;;;28.25;19.25;;;;;;;8.52;82.77;97429.50;5014375;28;20057;-75
2021/10/19 00:49:59;;;;;;;26.63;18.88;;;;;;;8.51;82.50;97436.50;5014306;28;20050;-75
2021/10/19 00:52:27;;;;;;;26.05;18.02;;;;;;;8.54;81.83;97440.56;5014373;28;20459;-75
2021/10/19 00:54:55;;;;;;;29.63;20.33;;;;;;;8.55;82.03;97450.84;5014183;28;20054;-75
2021/10/19 00:57:22;;;;;;;31.75;21.83;;;;;;;8.59;83.43;97446.97;5013892;28;20061;-75
2021/10/19 00:59:50;;;;;;;35.95;22.70;;;;;;;8.64;84.42;97449.94;5013968;28;20053;-75
2021/10/19 01:02:17;;;;;;;35.30;23.65;;;;;;;8.65;85.11;97438.56;5014133;28;20061;-76
2021/10/19 01:04:46;;;;;;;29.63;21.35;;;;;;;8.65;84.64;97433.34;5014118;28;20049;-75
2021/10/19 01:07:15;;;;;;;33.25;21.95;;;;;;;8.62;84.39;97436.28;5013782;28;20061;-75
2021/10/19 01:09:43;;;;;;;37.50;22.80;;;;;;;8.59;85.03;97436.56;5013669;28;20050;-75
2021/10/19 01:12:11;;;;;;;37.10;23.33;;;;;;;8.57;84.92;97433.31;5013641;28;20053;-75
2021/10/19 01:14:38;;;;;;;25.67;18.92;;;;;;;8.50;82.62;97441.84;5014454;28;20053;-76
2021/10/19 01:17:08;;;;;;;25.65;18.05;;;;;;;8.45;81.77;97444.88;5013802;28;20057;-76
2021/10/19 01:19:36;;;;;;;27.95;20.38;;;;;;;8.42;82.80;97439.97;5013773;28;20144;-76
2021/10/19 01:22:08;;;;;;;30.02;20.65;;;;;;;8.41;83.13;97440.94;5013391;28;20050;-75
2021/10/19 01:24:36;;;;;;;26.60;18.92;;;;;;;8.39;82.41;97453.22;5011641;28;20088;-75
2021/10/19 01:27:04;;;;;;;36.33;23.38;;;;;;;8.41;83.85;97456.53;5011674;28;20052;-75
2021/10/19 01:29:31;;;;;;;39.00;25.30;;;;;;;8.45;85.45;97456.09;5011215;28;20064;-75
2021/10/19 01:32:01;;;;;;;33.72;22.30;;;;;;;8.48;85.64;97454.16;5011592;28;20058;-75
2021/10/19 01:34:33;;;;;;;24.77;18.08;;;;;;;8.45;84.94;97450.06;5011513;28;20054;-75
2021/10/19 01:37:01;;;;;;;27.33;19.00;;;;;;;8.44;84.08;97448.47;5011334;28;20054;-75
2021/10/19 01:39:29;;;;;;;31.33;21.15;;;;;;;8.43;85.04;97441.59;5012813;28;20499;-75
2021/10/19 01:41:57;;;;;;;25.23;18.15;;;;;;;8.42;84.68;97450.38;5013390;28;20049;-75
2021/10/19 01:44:24;;;;;;;38.78;23.50;;;;;;;8.43;84.55;97454.59;5017188;28;20060;-75
2021/10/19 01:46:52;;;;;;;22.13;17.75;;;;;;;8.40;83.81;97447.09;5020221;28;20050;-75
2021/10/19 01:49:20;;;;;;;26.08;17.30;;;;;;;8.34;82.13;97439.88;5018560;28;20054;-75
2021/10/19 01:51:47;;;;;;;24.50;18.10;;;;;;;8.29;82.17;97429.91;5013838;28;20054;-75
2021/10/19 01:54:15;;;;;;;23.48;17.50;;;;;;;8.26;81.91;97422.38;5013548;28;20054;-75
2021/10/19 01:56:43;;;;;;;25.40;18.33;;;;;;;8.18;81.53;97409.31;5013212;28;20530;-75
2021/10/19 01:59:11;;;;;;;23.58;17.95;;;;;;;8.14;80.91;97407.97;5012950;28;20072;-75
2021/10/19 02:01:39;;;;;;;23.17;17.10;;;;;;;8.07;79.76;97417.31;5013126;28;20503;-75
2021/10/19 02:04:06;;;;;;;22.17;17.48;;;;;;;8.00;79.72;97409.28;5013198;28;20065;-75
2021/10/19 02:06:34;;;;;;;26.95;17.80;;;;;;;7.97;80.13;97412.19;5013314;28;20057;-75
2021/10/19 02:09:01;;;;;;;23.75;18.58;;;;;;;7.94;80.74;97405.50;5012853;28;20515;-75
2021/10/19 02:11:29;;;;;;;24.80;18.67;;;;;;;7.92;81.31;97396.22;5012896;28;20057;-75
2021/10/19 02:13:58;;;;;;;23.88;17.40;;;;;;;7.89;80.77;97397.28;5013151;28;20061;-75
2021/10/19 02:16:25;;;;;;;20.17;16.00;;;;;;;7.88;80.77;97398.28;5012822;28;20056;-75
2021/10/19 02:18:53;;;;;;;26.77;19.20;;;;;;;7.91;82.27;97394.56;5012135;28;20077;-75
2021/10/19 02:21:20;;;;;;;21.00;16.38;;;;;;;7.94;82.05;97399.50;5012787;28;20041;-75
2021/10/19 02:23:48;;;;;;;23.15;16.95;;;;;;;7.96;81.94;97394.94;5012771;28;20057;-75
2021/10/19 02:26:15;;;;;;;22.35;16.23;;;;;;;8.01;82.07;97392.75;5012567;28;20100;-75
2021/10/19 02:28:42;;;;;;;21.38;15.88;;;;;;;8.04;81.92;97387.25;5012572;28;20046;-75
2021/10/19 02:31:12;;;;;;;22.17;16.30;;;;;;;8.05;81.50;97391.50;5012586;28;20438;-75
2021/10/19 02:33:39;;;;;;;23.73;16.65;;;;;;;8.08;81.74;97385.97;5012760;28;20486;-75
2021/10/19 02:36:07;;;;;;;29.92;19.48;;;;;;;8.11;82.14;97385.72;5012357;28;20049;-75
2021/10/19 02:38:35;;;;;;;27.63;19.83;;;;;;;8.13;83.17;97396.75;5012231;28;20053;-75
2021/10/19 02:41:02;;;;;;;22.30;17.50;;;;;;;8.16;83.53;97382.66;5012491;28;20046;-75
2021/10/19 02:43:30;;;;;;;24.17;18.30;;;;;;;8.19;82.92;97384.97;5012390;28;20109;-75
2021/10/19 02:45:57;;;;;;;21.65;16.90;;;;;;;8.18;81.96;97394.53;5012283;28;20049;-75
2021/10/19 02:48:26;;;;;;;23.75;17.15;;;;;;;8.17;81.78;97392.91;5012470;28;20085;-75
2021/10/19 02:50:53;;;;;;;22.20;17.23;;;;;;;8.18;82.13;97391.94;5012618;28;20238;-76
2021/10/19 02:53:21;;;;;;;25.13;17.65;;;;;;;8.19;81.88;97393.56;5012489;28;20057;-75
2021/10/19 02:55:49;;;;;;;29.35;20.10;;;;;;;8.23;83.24;97394.09;5012681;28;20132;-75
2021/10/19 02:58:16;;;;;;;23.35;17.60;;;;;;;8.26;84.00;97404.19;5012866;28;20061;-75
2021/10/19 03:00:44;;;;;;;21.20;16.35;;;;;;;8.28;83.34;97398.84;5012522;28;20053;-76
2021/10/19 03:03:11;;;;;;;28.23;19.45;;;;;;;8.27;83.43;97399.84;5012801;28;20088;-75
2021/10/19 03:05:40;;;;;;;27.25;19.17;;;;;;;8.28;84.66;97388.47;5012340;28;20050;-75
2021/10/19 03:08:08;;;;;;;25.13;18.40;;;;;;;8.28;84.59;97384.06;5012093;28;20054;-75
2021/10/19 03:10:35;;;;;;;29.10;20.00;;;;;;;8.25;84.71;97386.97;5023034;28;20053;-75
2021/10/19 03:13:03;;;;;;;18.70;15.18;;;;;;;8.19;83.24;97385.78;5026746;28;20053;-75
2021/10/19 03:15:30;;;;;;;18.20;14.10;;;;;;;8.12;81.32;97386.53;5025790;28;20054;-76
2021/10/19 03:17:58;;;;;;;18.60;14.25;;;;;;;8.03;79.87;97389.03;5014140;28;20145;-75
2021/10/19 03:20:25;;;;;;;15.70;13.10;;;;;;;7.95;79.30;97381.13;5011954;28;20057;-75
2021/10/19 03:22:54;;;;;;;16.67;13.65;;;;;;;7.89;78.87;97393.88;5012295;28;20046;-75
2021/10/19 03:25:22;;;;;;;16.60;12.80;;;;;;;7.83;78.92;97398.72;5012064;28;20076;-75
2021/10/19 03:27:49;;;;;;;15.60;12.85;;;;;;;7.81;78.94;97405.03;5011870;28;20057;-75
2021/10/19 03:30:16;;;;;;;21.27;16.10;;;;;;;7.83;80.93;97403.91;5011957;28;20057;-75
2021/10/19 03:32:48;;;;;;;17.55;14.70;;;;;;;7.89;81.82;97407.69;5012311;28;20440;-75
2021/10/19 03:35:15;;;;;;;15.70;12.45;;;;;;;7.87;80.11;97396.66;5011964;28;20057;-75
2021/10/19 03:37:43;;;;;;;18.05;13.85;;;;;;;7.87;80.41;97388.03;5011858;28;20053;-76
2021/10/19 03:40:12;;;;;;;16.83;12.55;;;;;;;7.83;79.20;97383.13;5011619;28;20053;-75
2021/10/19 03:42:41;;;;;;;17.33;13.48;;;;;;;7.80;78.58;97392.97;5012067;28;20045;-75
2021/10/19 03:45:10;;;;;;;16.30;12.77;;;;;;;7.75;78.08;97395.19;5012114;28;20053;-75
2021/10/19 03:47:37;;;;;;;16.30;13.25;;;;;;;7.70;78.63;97402.63;5011901;28;20407;-75
2021/10/19 03:50:06;;;;;;;16.40;12.80;;;;;;;7.70;78.81;97408.63;5015606;28;20053;-76
2021/10/19 03:52:33;;;;;;;15.18;12.13;;;;;;;7.73;78.40;97405.72;5015335;28;20129;-75
2021/10/19 03:55:01;;;;;;;17.33;12.93;;;;;;;7.78;79.83;97408.72;5015609;28;20046;-75
2021/10/19 03:57:30;;;;;;;15.90;12.77;;;;;;;7.84;79.18;97412.50;5015225;28;20053;-75
2021/10/19 03:59:57;;;;;;;18.77;13.75;;;;;;;7.89;80.57;97417.28;5015081;28;20050;-75
2021/10/19 04:02:25;;;;;;;16.48;12.80;;;;;;;7.91;81.31;97418.75;5015281;28;20050;-75
2021/10/19 04:04:52;;;;;;;14.10;11.82;;;;;;;7.94;80.83;97415.06;5015382;28;20053;-75
2021/10/19 04:07:20;;;;;;;13.23;10.77;;;;;;;7.96;79.85;97418.31;5034274;23;20053;-75
2021/10/19 04:09:47;;;;;;;17.70;13.52;;;;;;;7.98;80.89;97417.22;5015380;28;20053;-77
2021/10/19 04:12:15;;;;;;;14.10;11.70;;;;;;;8.00;80.69;97417.06;5016025;28;20050;-77
2021/10/19 04:14:44;;;;;;;16.10;12.05;;;;;;;7.97;78.60;97415.59;5015784;28;20053;-78
2021/10/19 04:17:11;;;;;;;15.32;12.57;;;;;;;7.98;79.76;97413.78;5015580;28;20458;-78
2021/10/19 04:19:38;;;;;;;14.93;12.02;;;;;;;7.97;78.28;97412.19;5015215;28;20393;-77
2021/10/19 04:22:06;;;;;;;15.90;13.30;;;;;;;7.93;79.89;97410.81;5015952;28;20443;-77
2021/10/19 04:24:33;;;;;;;15.43;13.18;;;;;;;7.97;80.96;97407.78;5015625;28;20428;-77
2021/10/19 04:27:01;;;;;;;11.57;10.38;;;;;;;7.98;78.92;97406.00;5015629;28;20072;-77
2021/10/19 04:29:28;;;;;;;14.43;11.45;;;;;;;7.95;78.73;97403.72;5015684;28;20054;-77
2021/10/19 04:31:57;;;;;;;13.63;9.88;;;;;;;7.95;78.72;97406.31;5015685;28;20065;-77
2021/10/19 04:34:25;;;;;;;12.95;10.93;;;;;;;7.92;77.79;97407.41;5015382;28;20058;-77
2021/10/19 04:36:52;;;;;;;13.70;10.27;;;;;;;7.90;77.59;97392.94;5015780;28;20053;-77
2021/10/19 04:39:20;;;;;;;15.07;12.18;;;;;;;7.93;78.91;97392.63;5015479;28;20078;-77
2021/10/19 04:41:47;;;;;;;14.90;12.45;;;;;;;7.96;79.78;97392.34;5015484;28;20046;-77
2021/10/19 04:44:15;;;;;;;13.25;11.38;;;;;;;7.99;79.71;97394.66;5015506;28;20066;-77
2021/10/19 04:46:43;;;;;;;12.63;10.60;;;;;;;8.02;79.90;97386.56;5015412;28;20053;-77
2021/10/19 04:49:12;;;;;;;18.15;14.00;;;;;;;8.11;82.47;97400.47;5015194;28;20494;-77
2021/10/19 04:51:41;;;;;;;15.85;12.48;;;;;;;8.19;83.15;97403.97;5015247;28;20049;-77
2021/10/19 04:54:08;;;;;;;15.57;12.40;;;;;;;8.19;82.27;97398.75;5015253;28;20064;-77
2021/10/19 04:56:36;;;;;;;15.13;11.38;;;;;;;8.21;82.08;97388.22;5015753;28;20058;-77
2021/10/19 04:59:03;;;;;;;12.63;11.18;;;;;;;8.19;81.59;97398.75;5016589;28;20554;-77
2021/10/19 05:01:31;;;;;;;12.13;10.52;;;;;;;8.17;81.18;97399.88;5014889;28;20064;-77
2021/10/19 05:03:58;;;;;;;13.82;11.90;;;;;;;8.18;81.94;97407.53;5015228;28;20046;-77
2021/10/19 05:06:27;;;;;;;17.73;13.35;;;;;;;8.19;82.50;97406.56;5015109;28;20634;-77
2021/10/19 05:08:55;;;;;;;14.85;12.38;;;;;;;8.18;82.90;97412.75;5014779;28;20053;-77
2021/10/19 05:11:22;;;;;;;11.32;10.13;;;;;;;8.16;81.41;97409.47;5015203;28;20115;-77
2021/10/19 05:13:50;;;;;;;11.52;9.80;;;;;;;8.13;80.28;97404.53;5014500;28;20049;-78
2021/10/19 05:16:17;;;;;;;14.48;12.20;;;;;;;8.18;82.55;97410.13;5006313;28;20133;-77
2021/10/19 05:18:45;;;;;;;13.27;10.95;;;;;;;8.22;81.98;97406.28;4997455;28;20133;-76
2021/10/19 05:21:12;;;;;;;13.63;10.77;;;;;;;8.22;80.36;97398.50;4999342;28;20053;-77
2021/10/19 05:23:41;;;;;;;15.57;11.80;;;;;;;8.25;81.77;97399.97;4997696;28;20053;-77
2021/10/19 05:26:09;;;;;;;16.40;13.50;;;;;;;8.30;83.44;97396.94;5016164;28;20046;-77
2021/10/19 05:28:37;;;;;;;13.23;11.13;;;;;;;8.34;82.60;97406.06;5015566;28;20057;-77
2021/10/19 05:31:04;;;;;;;20.50;12.95;;;;;;;8.38;82.06;97397.00;5017187;28;20061;-78
2021/10/19 05:33:32;;;;;;;13.20;10.40;;;;;;;8.36;80.57;97389.34;5015897;28;20118;-77
2021/10/19 05:36:01;;;;;;;12.43;10.18;;;;;;;8.34;79.45;97393.06;5015351;28;20050;-77
2021/10/19 05:38:32;;;;;;;12.57;10.30;;;;;;;8.32;79.48;97382.81;5014547;28;20058;-78
2021/10/19 05:41:01;;;;;;;11.80;10.45;;;;;;;8.32;80.44;97388.00;5014103;28;20053;-77
2021/10/19 05:43:28;;;;;;;15.23;12.00;;;;;;;8.34;80.84;97380.06;5015003;28;20050;-77
2021/10/19 05:45:56;;;;;;;10.52;9.27;;;;;;;8.32;79.85;97388.00;5014091;28;20156;-77
2021/10/19 05:48:23;;;;;;;11.27;9.20;;;;;;;8.29;79.19;97374.47;5013997;28;20431;-77
2021/10/19 05:50:51;;;;;;;14.90;10.75;;;;;;;8.30;80.66;97376.13;5001635;28;20055;-77
2021/10/19 05:53:18;;;;;;;10.27;9.02;;;;;;;8.32;80.24;97377.63;4994365;28;20053;-77
2021/10/19 05:55:46;;;;;;;11.80;10.52;;;;;;;8.35;80.64;97379.94;4995215;28;20451;-78
2021/10/19 05:58:15;;;;;;;10.82;9.70;;;;;;;8.35;79.76;97376.50;5007463;28;20045;-77
2021/10/19 06:00:48;;;;;;;9.18;8.18;;;;;;;8.38;79.19;97384.00;5021599;28;20047;-77
2021/10/19 06:03:16;;;;;;;10.07;8.80;;;;;;;8.38;78.04;97386.63;5034028;28;20061;-78
2021/10/19 06:05:44;;;;;;;12.13;9.18;;;;;;;8.39;77.60;97390.84;5016981;28;20054;-77
2021/10/19 06:08:11;;;;;;;13.75;9.60;;;;;;;8.42;78.44;97396.59;5009109;28;20054;-77
2021/10/19 06:10:39;;;;;;;11.63;9.05;;;;;;;8.44;77.83;97399.88;4996036;28;20070;-78
2021/10/19 06:13:06;;;;;;;16.55;11.77;;;;;;;8.48;79.56;97397.75;4994604;28;20077;-77
2021/10/19 06:15:35;;;;;;;16.15;11.82;;;;;;;8.54;81.79;97414.56;4994717;28;20501;-77
2021/10/19 06:18:04;;;;;;;14.30;10.90;;;;;;;8.58;81.82;97421.94;4995170;28;20053;-77
2021/10/19 06:20:31;;;;;;;11.60;9.10;;;;;;;8.58;79.79;97424.53;4993889;28;20054;-76
2021/10/19 06:22:59;;;;;;;11.43;8.93;;;;;;;8.58;78.48;97424.53;4993687;28;20452;-77
2021/10/19 06:25:26;;;;;;;11.23;9.45;;;;;;;8.59;77.80;97431.38;4993800;28;20540;-78
2021/10/19 06:27:53;;;;;;;13.80;10.23;;;;;;;8.60;78.60;97430.41;4994127;28;20049;-79
2021/10/19 06:30:22;;;;;;;11.52;9.70;;;;;;;8.63;78.54;97437.88;4993613;28;20047;-78
2021/10/19 06:32:51;;;;;;;11.35;9.88;;;;;;;8.62;78.91;97435.47;4993356;28;20484;-78
2021/10/19 06:35:18;;;;;;;14.73;11.25;;;;;;;8.60;78.67;97440.81;4993382;28;20050;-79
2021/10/19 06:37:46;;;;;;;18.70;11.20;;;;;;;8.55;77.90;97435.25;4993614;28;20065;-79
2021/10/19 06:40:18;;;;;;;16.80;11.03;;;;;;;8.54;79.28;97430.97;4993348;28;20057;-79
2021/10/19 06:42:46;;;;;;;15.90;10.77;;;;;;;8.56;78.71;97430.84;4994811;28;20047;-78
2021/10/19 06:45:13;;;;;;;16.15;10.40;;;;;;;8.56;77.52;97434.25;4993985;28;20054;-78
2021/10/19 06:47:41;;;;;;;11.75;10.25;;;;;;;8.55;77.56;97440.44;4994022;28;20054;-77
2021/10/19 06:50:11;;;;;;;16.95;11.95;;;;;;;8.58;78.14;97445.31;4992962;28;20054;-78
2021/10/19 06:52:38;;;;;;;16.10;12.73;;;;;;;8.63;80.15;97443.09;4994153;28;20061;-77
2021/10/19 06:55:08;;;;;;;17.50;13.57;;;;;;;8.68;82.03;97449.63;4994353;28;20061;-78
2021/10/19 06:57:39;;;;;;;20.35;13.18;;;;;;;8.74;82.65;97449.03;5010260;28;20458;-78
2021/10/19 07:00:08;;;;;;;15.50;12.38;;;;;;;8.78;81.85;97446.00;5013701;28;20084;-78
2021/10/19 07:02:35;;;;;;;11.63;10.05;;;;;;;8.76;79.48;97447.94;5014574;28;20050;-78
2021/10/19 07:05:03;;;;;;;13.05;10.13;;;;;;;8.76;78.63;97462.72;5033974;28;20050;-78
2021/10/19 07:07:32;;;;;;;10.88;9.77;;;;;;;8.78;79.05;97466.00;5033803;28;20064;-79
2021/10/19 07:10:00;;;;;;;11.80;10.57;;;;;;;8.81;79.92;97470.88;5024178;28;20057;-78
2021/10/19 07:12:28;;;;;;;13.02;10.98;;;;;;;8.84;80.17;97475.81;5014533;28;20054;-77
2021/10/19 07:14:55;;;;;;;12.85;11.15;;;;;;;8.86;81.21;97474.69;5012213;28;20076;-78
2021/10/19 07:17:23;;;;;;;10.13;8.95;;;;;;;8.91;80.33;97474.25;5012560;28;20057;-78
2021/10/19 07:19:50;;;;;;;14.95;11.20;;;;;;;8.93;79.92;97474.09;5012430;28;20057;-78
2021/10/19 07:22:18;;;;;;;15.18;11.95;;;;;;;8.93;80.65;97480.13;5014005;28;20057;-78
2021/10/19 07:24:47;;;;;;;14.70;12.63;;;;;;;8.95;81.06;97483.38;5017214;28;20042;-78
2021/10/19 07:27:14;;;;;;;18.90;13.52;;;;;;;8.98;81.72;97479.66;5016295;28;20046;-78
2021/10/19 07:29:44;;;;;;;19.05;12.85;;;;;;;8.97;81.43;97481.44;5016272;28;20046;-78
2021/10/19 07:32:11;;;;;;;19.63;13.55;;;;;;;8.97;81.88;97470.22;5016763;28;20054;-78
2021/10/19 07:34:38;;;;;;;19.95;14.80;;;;;;;8.98;82.66;97472.66;5016282;28;20503;-78
2021/10/19 07:37:06;;;;;;;17.95;13.20;;;;;;;8.99;82.68;97473.50;5016475;28;20053;-77
2021/10/19 07:39:33;;;;;;;19.38;13.23;;;;;;;8.97;82.29;97473.66;5016799;28;20053;-77
2021/10/19 07:42:02;;;;;;;19.73;13.60;;;;;;;8.97;82.09;97471.03;5016176;28;20080;-78
2021/10/19 07:44:31;;;;;;;17.63;13.98;;;;;;;8.98;82.19;97469.25;5017698;28;20057;-77
2021/10/19 07:46:58;;;;;;;20.70;15.70;;;;;;;8.97;81.35;97459.81;5012994;28;20054;-77
2021/10/19 07:49:26;;;;;;;20.88;14.45;;;;;;;8.95;80.58;97466.97;4996512;28;20112;-77
2021/10/19 07:51:54;;;;;;;19.77;15.75;;;;;;;8.95;82.24;97465.16;4996449;28;20061;-78
2021/10/19 07:54:22;;;;;;;15.63;13.93;;;;;;;9.00;82.32;97465.53;4996499;28;20046;-78
2021/10/19 07:56:49;;;;;;;14.43;12.93;;;;;;;9.03;82.45;97454.84;4996855;28;20401;-78
2021/10/19 07:59:18;;;;;;;14.02;11.85;;;;;;;9.08;82.33;97457.78;4996228;28;20054;-77
2021/10/19 08:01:45;;;;;;;13.00;10.80;;;;;;;9.13;82.25;97464.34;4996710;28;20471;-78
2021/10/19 08:04:13;;;;;;;15.80;11.80;;;;;;;9.20;83.42;97465.34;4996303;28;20059;-77
2021/10/19 08:06:41;;;;;;;13.25;10.30;;;;;;;9.22;82.52;97461.63;4996359;28;20523;-77
2021/10/19 08:09:08;;;;;;;14.30;9.73;;;;;;;9.24;82.24;97469.28;4996680;28;20057;-77
2021/10/19 08:11:36;;;;;;;12.77;10.30;;;;;;;9.31;83.12;97472.09;5009255;28;20058;-77
2021/10/19 08:14:03;;;;;;;13.48;10.55;;;;;;;9.33;82.67;97470.16;5015719;28;20049;-78
2021/10/19 08:16:32;;;;;;;14.10;9.77;;;;;;;9.36;82.14;97475.91;5016304;28;20054;-77
2021/10/19 08:19:00;;;;;;;14.30;10.05;;;;;;;9.40;82.10;97476.38;5016435;28;20057;-78
2021/10/19 08:21:30;;;;;;;13.48;10.52;;;;;;;9.44;81.68;97470.72;5016318;28;20057;-77
2021/10/19 08:23:58;;;;;;;15.23;10.82;;;;;;;9.49;82.06;97478.91;5000119;28;20057;-77
2021/10/19 08:26:29;;;;;;;11.48;9.68;;;;;;;9.54;81.65;97483.66;4996309;28;20046;-77
2021/10/19 08:28:57;;;;;;;13.43;10.40;;;;;;;9.59;82.56;97483.19;4996856;28;20050;-78
2021/10/19 08:31:25;;;;;;;10.88;8.63;;;;;;;9.63;82.26;97481.91;4997807;28;20062;-78
2021/10/19 08:33:54;;;;;;;13.85;11.05;;;;;;;9.67;82.90;97483.25;4995246;28;20050;-79
2021/10/19 08:36:21;;;;;;;12.75;10.27;;;;;;;9.70;83.07;97485.53;5005291;28;20522;-78
2021/10/19 08:38:49;;;;;;;11.32;8.82;;;;;;;9.72;82.81;97491.41;5015320;28;20067;-79
2021/10/19 08:41:19;;;;;;;11.52;8.70;;;;;;;9.74;82.24;97489.47;5015630;28;20072;-78
2021/10/19 08:43:47;;;;;;;9.98;7.90;;;;;;;9.78;82.05;97496.00;5017965;28;20046;-78
2021/10/19 08:46:16;;;;;;;12.30;8.70;;;;;;;9.84;83.02;97484.97;5016014;28;20054;-79
2021/10/19 08:48:43;;;;;;;8.73;7.82;;;;;;;9.91;83.17;97479.97;5014903;28;20041;-78
2021/10/19 08:51:13;;;;;;;11.98;9.93;;;;;;;9.94;82.75;97473.59;5015112;28;20065;-78
2021/10/19 08:53:43;;;;;;;11.60;9.02;;;;;;;9.97;82.73;97473.28;5015398;28;20062;-79
2021/10/19 08:56:10;;;;;;;11.90;9.50;;;;;;;9.99;82.59;97480.00;5016105;28;20057;-77
2021/10/19 08:58:39;;;;;;;11.95;9.52;;;;;;;10.04;83.29;97469.09;5016443;28;20053;-76
2021/10/19 09:01:08;;;;;;;13.80;10.18;;;;;;;10.09;82.85;97485.06;5014834;28;20054;-77
2021/10/19 09:03:46;;;;;;;14.40;9.07;;;;;;;10.12;82.34;97492.56;5014816;28;20113;-77
2021/10/19 09:06:15;;;;;;;11.05;9.43;;;;;;;10.16;82.12;97500.91;5014834;28;20049;-77
2021/10/19 09:08:44;;;;;;;12.68;10.48;;;;;;;10.20;82.60;97492.63;5014593;28;20100;-77
2021/10/19 09:11:15;;;;;;;15.57;9.80;;;;;;;10.23;82.04;97497.53;5003926;28;20050;-77
2021/10/19 09:13:52;;;;;;;11.75;10.48;;;;;;;10.28;83.48;97513.50;4995384;28;20057;-78
2021/10/19 09:16:23;;;;;;;13.25;9.88;;;;;;;10.34;83.20;97516.50;4995424;28;20058;-78
2021/10/19 09:19:00;;;;;;;12.63;10.43;;;;;;;10.37;83.92;97517.00;4994887;28;20057;-77
2021/10/19 09:21:30;;;;;;;13.82;11.00;;;;;;;10.43;83.24;97512.94;4995215;28;20051;-77
2021/10/19 09:24:19;;;;;;;11.80;9.07;;;;;;;10.47;82.15;97511.63;5003464;28;20060;-77
2021/10/19 09:26:56;;;;;;;15.27;11.43;;;;;;;10.49;82.31;97513.13;5017967;28;20054;-77
2021/10/19 09:29:25;;;;;;;17.60;12.23;;;;;;;10.52;82.75;97501.56;5015328;28;20070;-77
2021/10/19 09:31:54;;;;;;;17.45;11.57;;;;;;;10.56;82.17;97494.22;5015218;28;20061;-77
2021/10/19 09:34:23;;;;;;;15.57;11.60;;;;;;;10.57;82.38;97501.91;5014172;28;20046;-77
2021/10/19 09:36:52;;;;;;;17.80;13.60;;;;;;;10.59;82.36;97494.72;5014201;28;20470;-77
2021/10/19 09:39:36;;;;;;;19.45;14.10;;;;;;;10.58;83.21;97503.50;5014206;28;20054;-77
2021/10/19 09:42:06;;;;;;;18.88;13.80;;;;;;;10.60;83.48;97508.56;5014204;28;20516;-77
2021/10/19 09:44:34;;;;;;;20.00;13.43;;;;;;;10.62;83.91;97511.84;5015410;28;20419;-77
2021/10/19 09:47:02;;;;;;;17.60;12.82;;;;;;;10.63;83.61;97510.88;5013338;28;20057;-77
2021/10/19 09:49:30;;;;;;;14.50;10.43;;;;;;;10.64;83.34;97513.31;5014325;28;20060;-76
2021/10/19 09:52:01;;;;;;;12.27;10.10;;;;;;;10.65;82.83;97512.34;5016980;28;20060;-77
2021/10/19 09:54:31;;;;;;;13.32;10.10;;;;;;;10.66;81.96;97505.34;5014998;28;20129;-76
2021/10/19 09:56:59;;;;;;;12.10;9.63;;;;;;;10.71;81.59;97506.50;5034684;28;20073;-79
2021/10/19 09:59:27;;;;;;;10.25;7.65;;;;;;;10.77;81.44;97512.06;5033118;28;20044;-78
2021/10/19 10:01:57;;;;;;;11.45;7.72;;;;;;;10.84;80.97;97507.81;5008604;28;20056;-78
2021/10/19 10:04:25;;;;;;;11.63;8.30;;;;;;;10.91;81.70;97514.00;4999327;28;20062;-79
2021/10/19 10:06:53;;;;;;;11.63;7.93;;;;;;;11.00;81.30;97517.44;4997687;28;20050;-78
2021/10/19 10:09:24;;;;;;;10.18;8.20;;;;;;;11.07;80.81;97513.25;5028262;23;20050;-75
2021/10/19 10:11:51;;;;;;;10.75;8.10;;;;;;;11.14;81.12;97519.44;5012768;28;20053;-74
2021/10/19 10:14:20;;;;;;;12.18;7.93;;;;;;;11.18;81.63;97520.75;4995602;28;20051;-76
2021/10/19 10:16:49;;;;;;;11.95;8.27;;;;;;;11.23;81.53;97522.88;5008235;28;20061;-75
2021/10/19 10:19:20;;;;;;;11.90;8.60;;;;;;;11.28;81.94;97520.56;5012892;28;20053;-76
2021/10/19 10:21:53;;;;;;;10.30;7.53;;;;;;;11.33;81.26;97519.13;5016574;28;20053;-75
2021/10/19 10:24:30;;;;;;;7.80;7.05;;;;;;;11.41;82.46;97531.34;5014910;28;20050;-76
2021/10/19 10:27:06;;;;;;;9.77;7.97;;;;;;;11.47;82.88;97525.47;5010820;28;20050;-78
2021/10/19 10:29:42;;;;;;;8.55;7.13;;;;;;;11.51;83.05;97526.78;4994245;28;20086;-76
2021/10/19 10:32:21;;;;;;;11.15;8.38;;;;;;;11.54;83.05;97530.84;4993954;28;20464;-76
2021/10/19 10:35:01;;;;;;;12.48;9.10;;;;;;;11.55;83.02;97528.06;4993985;28;20085;-76
2021/10/19 10:37:40;;;;;;;15.57;9.95;;;;;;;11.59;81.47;97525.13;4993812;28;20042;-76
2021/10/19 10:40:27;;;;;;;11.60;9.00;;;;;;;11.60;82.42;97529.38;4992712;28;20464;-75
2021/10/19 10:42:56;;;;;;;13.48;9.20;;;;;;;11.61;82.73;97536.22;4992618;28;20524;-76
2021/10/19 10:45:29;;;;;;;13.13;8.18;;;;;;;11.62;82.00;97522.19;4992942;28;20085;-75
2021/10/19 10:47:59;;;;;;;11.95;8.07;;;;;;;11.62;80.86;97512.56;4992719;28;20104;-76
2021/10/19 10:50:27;;;;;;;11.38;8.27;;;;;;;11.64;80.34;97504.56;4992773;28;20051;-76
2021/10/19 10:53:00;;;;;;;9.68;7.13;;;;;;;11.66;79.29;97498.19;4992771;28;20069;-77
2021/10/19 10:55:33;;;;;;;7.70;6.65;;;;;;;11.69;79.14;97491.78;4972752;28;20051;-75
2021/10/19 10:58:01;;;;;;;9.75;6.68;;;;;;;11.72;79.03;97491.47;4975585;28;20528;-76
2021/10/19 11:03:36;;;;;;;9.68;7.28;;;;;;;11.77;79.06;97480.53;4978486;28;20521;-77
2021/10/19 11:06:04;;;;;;;11.52;7.38;;;;;;;11.79;79.33;97470.72;4996398;28;20056;-76
2021/10/19 11:08:35;;;;;;;8.50;7.60;;;;;;;11.82;80.23;97470.38;4996241;28;20050;-76
2021/10/19 11:11:07;;;;;;;38.20;31.42;;;;;;;11.85;79.81;97459.56;4996682;28;20469;-75
2021/10/19 11:13:47;;;;;;;33.38;29.98;;;;;;;11.88;80.32;97462.69;4996708;28;20058;-75
2021/10/19 11:16:14;;;;;;;17.63;14.73;;;;;;;11.89;79.54;97451.25;5006359;28;20065;-77
2021/10/19 11:18:42;;;;;;;14.35;12.00;;;;;;;11.89;79.61;97453.84;5015936;28;20515;-77
2021/10/19 11:21:10;;;;;;;11.48;7.60;;;;;;;11.91;79.72;97456.31;5016419;28;20053;-76
2021/10/19 11:23:41;;;;;;;8.77;7.47;;;;;;;11.94;80.14;97456.00;5016429;28;20049;-77
2021/10/19 11:26:11;;;;;;;8.25;6.18;;;;;;;11.94;80.11;97454.19;4996891;28;20054;-77
2021/10/19 11:28:41;;;;;;;8.30;5.95;;;;;;;11.97;80.41;97449.59;4995966;28;20105;-76
2021/10/19 11:31:09;;;;;;;7.55;5.57;;;;;;;11.99;81.24;97445.03;4995984;28;20050;-76
2021/10/19 11:33:37;;;;;;;4.72;4.32;;;;;;;12.02;81.08;97436.81;4995756;28;20053;-76
2021/10/19 11:36:06;;;;;;;8.65;6.80;;;;;;;12.06;81.02;97427.66;4995968;28;20050;-76